sensor_id;sensor_type;location;lat;lon;timestamp;pressure;altitude;pressure_sealevel;temperature;humidity
9141;BME280;46330;50.822;7.126;2023-01-31T00:02:27;101827.16;;;4.60;92.00
9141;BME280;46330;50.822;7.126;2023-01-31T00:04:57;101827.19;;;4.62;92.96
9141;BME280;46330;50.822;7.126;2023-01-31T00:07:25;101832.38;;;4.62;92.71
9141;BME280;46330;50.822;7.126;2023-01-31T00:09:52;101829.75;;;4.60;92.04
9141;BME280;46330;50.822;7.126;2023-01-31T00:12:20;101822.81;;;4.59;92.67
9141;BME280;46330;50.822;7.126;2023-01-31T00:14:48;101834.06;;;4.60;92.11
9141;BME280;46330;50.822;7.126;2023-01-31T00:17:16;101847.00;;;4.60;92.22
9141;BME280;46330;50.822;7.126;2023-01-31T00:19:45;101843.63;;;4.62;92.33
9141;BME280;46330;50.822;7.126;2023-01-31T00:22:13;101836.72;;;4.63;92.09
9141;BME280;46330;50.822;7.126;2023-01-31T00:24:41;101843.56;;;4.61;92.20
9141;BME280;46330;50.822;7.126;2023-01-31T00:27:09;101836.72;;;4.63;91.78
9141;BME280;46330;50.822;7.126;2023-01-31T00:29:37;101846.19;;;4.62;91.72
9141;BME280;46330;50.822;7.126;2023-01-31T00:32:04;101840.13;;;4.62;92.01
9141;BME280;46330;50.822;7.126;2023-01-31T00:34:32;101847.91;;;4.62;92.12
9141;BME280;46330;50.822;7.126;2023-01-31T00:37:02;101840.13;;;4.62;91.84
9141;BME280;46330;50.822;7.126;2023-01-31T00:39:31;101840.13;;;4.60;92.00
9141;BME280;46330;50.822;7.126;2023-01-31T00:41:59;101842.72;;;4.62;92.45
9141;BME280;46330;50.822;7.126;2023-01-31T00:44:27;101824.56;;;4.60;91.86
9141;BME280;46330;50.822;7.126;2023-01-31T00:46:56;101825.41;;;4.59;91.91
9141;BME280;46330;50.822;7.126;2023-01-31T00:49:24;101829.75;;;4.60;92.04
9141;BME280;46330;50.822;7.126;2023-01-31T00:51:52;101815.13;;;4.62;91.24
9141;BME280;46330;50.822;7.126;2023-01-31T00:54:21;101822.94;;;4.64;91.77
9141;BME280;46330;50.822;7.126;2023-01-31T00:56:49;101821.25;;;4.67;91.95
9141;BME280;46330;50.822;7.126;2023-01-31T00:59:17;101824.59;;;4.62;91.65
9141;BME280;46330;50.822;7.126;2023-01-31T01:01:45;101822.00;;;4.62;91.61
9141;BME280;46330;50.822;7.126;2023-01-31T01:04:13;101826.22;;;4.57;91.80
9141;BME280;46330;50.822;7.126;2023-01-31T01:06:41;101819.41;;;4.62;91.33
9141;BME280;46330;50.822;7.126;2023-01-31T01:09:10;101830.50;;;4.56;91.40
9141;BME280;46330;50.822;7.126;2023-01-31T01:11:39;101826.09;;;4.52;91.61
9141;BME280;46330;50.822;7.126;2023-01-31T01:14:08;101830.44;;;4.53;91.96
9141;BME280;46330;50.822;7.126;2023-01-31T01:16:38;101833.72;;;4.46;92.96
9141;BME280;46330;50.822;7.126;2023-01-31T01:19:12;101838.94;;;4.48;92.69
9141;BME280;46330;50.822;7.126;2023-01-31T01:21:42;101850.94;;;4.44;92.99
9141;BME280;46330;50.822;7.126;2023-01-31T01:24:14;101842.22;;;4.42;92.98
9141;BME280;46330;50.822;7.126;2023-01-31T01:26:44;101837.94;;;4.43;92.40
9141;BME280;46330;50.822;7.126;2023-01-31T01:29:12;101843.03;;;4.38;92.44
9141;BME280;46330;50.822;7.126;2023-01-31T01:31:40;101843.75;;;4.32;92.90
9141;BME280;46330;50.822;7.126;2023-01-31T01:34:12;101836.75;;;4.30;92.80
9141;BME280;46330;50.822;7.126;2023-01-31T01:36:41;101825.34;;;4.23;93.59
9141;BME280;46330;50.822;7.126;2023-01-31T01:39:14;101837.38;;;4.20;93.58
9141;BME280;46330;50.822;7.126;2023-01-31T01:41:45;101844.19;;;4.16;94.19
9141;BME280;46330;50.822;7.126;2023-01-31T01:44:42;101845.00;;;4.14;93.86
9141;BME280;46330;50.822;7.126;2023-01-31T01:47:14;101845.06;;;4.17;94.38
9141;BME280;46330;50.822;7.126;2023-01-31T01:49:45;101843.31;;;4.16;94.14
9141;BME280;46330;50.822;7.126;2023-01-31T01:52:16;101840.63;;;4.13;93.49
9141;BME280;46330;50.822;7.126;2023-01-31T01:54:46;101839.81;;;4.14;93.27
9141;BME280;46330;50.822;7.126;2023-01-31T01:57:21;101831.25;;;4.18;93.51
9141;BME280;46330;50.822;7.126;2023-01-31T01:59:55;101835.47;;;4.13;93.05
9141;BME280;46330;50.822;7.126;2023-01-31T02:02:25;101827.69;;;4.13;93.37
9141;BME280;46330;50.822;7.126;2023-01-31T02:04:53;101825.97;;;4.13;92.73
9141;BME280;46330;50.822;7.126;2023-01-31T02:07:21;101824.34;;;4.17;92.92
9141;BME280;46330;50.822;7.126;2023-01-31T02:09:55;101823.47;;;4.16;92.34
9141;BME280;46330;50.822;7.126;2023-01-31T02:12:25;101815.56;;;4.10;92.38
9141;BME280;46330;50.822;7.126;2023-01-31T02:14:54;101814.78;;;4.14;92.20
9141;BME280;46330;50.822;7.126;2023-01-31T02:17:22;101825.19;;;4.16;92.26
9141;BME280;46330;50.822;7.126;2023-01-31T02:20:01;101819.88;;;4.11;92.17
9141;BME280;46330;50.822;7.126;2023-01-31T02:22:32;101821.53;;;4.08;91.95
9141;BME280;46330;50.822;7.126;2023-01-31T02:28:35;101831.69;;;4.02;92.43
9141;BME280;46330;50.822;7.126;2023-01-31T02:31:38;101823.09;;;4.01;92.25
9141;BME280;46330;50.822;7.126;2023-01-31T02:34:15;101812.81;;;4.04;92.10
9141;BME280;46330;50.822;7.126;2023-01-31T02:36:56;101824.78;;;4.01;92.28
9141;BME280;46330;50.822;7.126;2023-01-31T02:39:31;101814.38;;;3.99;91.94
9141;BME280;46330;50.822;7.126;2023-01-31T02:42:04;101811.59;;;3.92;92.16
9141;BME280;46330;50.822;7.126;2023-01-31T02:44:40;101806.44;;;3.92;92.44
9141;BME280;46330;50.822;7.126;2023-01-31T02:47:38;101815.16;;;3.95;92.37
9141;BME280;46330;50.822;7.126;2023-01-31T02:50:13;101818.50;;;3.91;92.34
9141;BME280;46330;50.822;7.126;2023-01-31T02:52:50;101808.16;;;3.93;92.00
9141;BME280;46330;50.822;7.126;2023-01-31T02:55:21;101809.72;;;3.86;92.81
9141;BME280;46330;50.822;7.126;2023-01-31T02:58:10;101821.81;;;3.86;92.68
9141;BME280;46330;50.822;7.126;2023-01-31T03:00:42;101826.91;;;3.84;92.73
9141;BME280;46330;50.822;7.126;2023-01-31T03:03:18;101830.38;;;3.85;92.57
9141;BME280;46330;50.822;7.126;2023-01-31T03:06:37;101835.31;;;3.75;92.06
9141;BME280;46330;50.822;7.126;2023-01-31T03:09:06;101830.00;;;3.71;92.49
9141;BME280;46330;50.822;7.126;2023-01-31T03:11:45;101836.94;;;3.72;91.83
9141;BME280;46330;50.822;7.126;2023-01-31T03:14:23;101828.13;;;3.65;92.46
9141;BME280;46330;50.822;7.126;2023-01-31T03:16:58;101828.84;;;3.60;92.25
9141;BME280;46330;50.822;7.126;2023-01-31T03:19:49;101826.91;;;3.53;92.99
9141;BME280;46330;50.822;7.126;2023-01-31T03:22:26;101835.31;;;3.46;93.27
9141;BME280;46330;50.822;7.126;2023-01-31T03:24:56;101832.69;;;3.44;93.34
9141;BME280;46330;50.822;7.126;2023-01-31T03:27:27;101831.81;;;3.44;93.11
9141;BME280;46330;50.822;7.126;2023-01-31T03:30:01;101833.22;;;3.33;92.88
9141;BME280;46330;50.822;7.126;2023-01-31T03:32:33;101830.56;;;3.30;93.62
9141;BME280;46330;50.822;7.126;2023-01-31T03:35:04;101825.16;;;3.22;94.22
9141;BME280;46330;50.822;7.126;2023-01-31T03:37:38;101823.38;;;3.21;94.17
9141;BME280;46330;50.822;7.126;2023-01-31T03:40:15;101821.56;;;3.17;94.43
9141;BME280;46330;50.822;7.126;2023-01-31T03:42:50;101829.34;;;3.18;94.40
9141;BME280;46330;50.822;7.126;2023-01-31T03:45:26;101817.22;;;3.16;94.40
9141;BME280;46330;50.822;7.126;2023-01-31T03:47:59;101825.84;;;3.16;94.05
9141;BME280;46330;50.822;7.126;2023-01-31T03:50:38;101818.03;;;3.15;94.35
9141;BME280;46330;50.822;7.126;2023-01-31T03:53:13;101815.34;;;3.10;94.08
9141;BME280;46330;50.822;7.126;2023-01-31T03:55:48;101809.19;;;3.07;94.49
9141;BME280;46330;50.822;7.126;2023-01-31T03:58:21;101816.84;;;3.04;94.22
9141;BME280;46330;50.822;7.126;2023-01-31T04:00:51;101827.97;;;3.01;94.06
9141;BME280;46330;50.822;7.126;2023-01-31T04:03:26;101824.44;;;2.98;94.13
9141;BME280;46330;50.822;7.126;2023-01-31T04:05:55;101815.69;;;2.94;94.39
9141;BME280;46330;50.822;7.126;2023-01-31T04:08:25;101819.97;;;2.94;94.90
9141;BME280;46330;50.822;7.126;2023-01-31T04:11:03;101818.19;;;2.91;94.85
9141;BME280;46330;50.822;7.126;2023-01-31T04:13:31;101817.22;;;2.88;94.54
9141;BME280;46330;50.822;7.126;2023-01-31T04:15:59;101814.50;;;2.83;94.55
9141;BME280;46330;50.822;7.126;2023-01-31T04:18:27;101807.31;;;2.75;94.48
9141;BME280;46330;50.822;7.126;2023-01-31T04:20:55;101799.28;;;2.65;95.24
9141;BME280;46330;50.822;7.126;2023-01-31T04:23:23;101806.84;;;2.59;94.52
9141;BME280;46330;50.822;7.126;2023-01-31T04:25:53;101809.22;;;2.52;94.85
9141;BME280;46330;50.822;7.126;2023-01-31T04:28:21;101802.00;;;2.42;95.28
9141;BME280;46330;50.822;7.126;2023-01-31T04:30:51;101801.53;;;2.28;96.15
9141;BME280;46330;50.822;7.126;2023-01-31T04:33:20;101799.53;;;2.20;96.78
9141;BME280;46330;50.822;7.126;2023-01-31T04:35:49;101801.84;;;2.12;98.11
9141;BME280;46330;50.822;7.126;2023-01-31T04:38:18;101801.91;;;2.13;98.38
9141;BME280;46330;50.822;7.126;2023-01-31T04:40:46;101795.84;;;2.11;97.79
9141;BME280;46330;50.822;7.126;2023-01-31T04:43:15;101790.34;;;2.02;97.19
9141;BME280;46330;50.822;7.126;2023-01-31T04:45:43;101794.53;;;1.99;97.71
9141;BME280;46330;50.822;7.126;2023-01-31T04:48:11;101783.34;;;1.98;97.38
9141;BME280;46330;50.822;7.126;2023-01-31T04:50:39;101787.41;;;1.92;97.72
9141;BME280;46330;50.822;7.126;2023-01-31T04:53:07;101788.84;;;1.84;96.91
9141;BME280;46330;50.822;7.126;2023-01-31T04:55:35;101776.50;;;1.75;97.28
9141;BME280;46330;50.822;7.126;2023-01-31T04:58:03;101784.69;;;1.63;98.46
9141;BME280;46330;50.822;7.126;2023-01-31T05:00:34;101778.56;;;1.60;99.51
9141;BME280;46330;50.822;7.126;2023-01-31T05:03:02;101779.25;;;1.56;99.59
9141;BME280;46330;50.822;7.126;2023-01-31T05:05:31;101776.38;;;1.47;100.00
9141;BME280;46330;50.822;7.126;2023-01-31T05:08:01;101776.38;;;1.47;100.00
9141;BME280;46330;50.822;7.126;2023-01-31T05:10:29;101773.84;;;1.48;100.00
9141;BME280;46330;50.822;7.126;2023-01-31T05:12:58;101775.38;;;1.43;100.00
9141;BME280;46330;50.822;7.126;2023-01-31T05:15:26;101774.53;;;1.43;100.00
9141;BME280;46330;50.822;7.126;2023-01-31T05:17:55;101774.53;;;1.43;100.00
9141;BME280;46330;50.822;7.126;2023-01-31T05:20:29;101777.13;;;1.44;100.00
9141;BME280;46330;50.822;7.126;2023-01-31T05:22:58;101780.53;;;1.43;100.00
9141;BME280;46330;50.822;7.126;2023-01-31T05:25:26;101765.84;;;1.41;99.77
9141;BME280;46330;50.822;7.126;2023-01-31T05:27:54;101763.13;;;1.36;99.73
9141;BME280;46330;50.822;7.126;2023-01-31T05:30:22;101760.34;;;1.32;98.88
9141;BME280;46330;50.822;7.126;2023-01-31T05:32:51;101755.06;;;1.27;98.68
9141;BME280;46330;50.822;7.126;2023-01-31T05:35:20;101766.19;;;1.26;100.00
9141;BME280;46330;50.822;7.126;2023-01-31T05:37:49;101757.41;;;1.21;100.00
9141;BME280;46330;50.822;7.126;2023-01-31T05:40:17;101759.00;;;1.18;100.00
9141;BME280;46330;50.822;7.126;2023-01-31T05:42:44;101764.97;;;1.17;100.00
9141;BME280;46330;50.822;7.126;2023-01-31T05:45:12;101759.66;;;1.12;100.00
9141;BME280;46330;50.822;7.126;2023-01-31T05:47:44;101770.81;;;1.13;100.00
9141;BME280;46330;50.822;7.126;2023-01-31T05:50:12;101769.81;;;1.09;100.00
9141;BME280;46330;50.822;7.126;2023-01-31T05:52:41;101775.97;;;1.13;100.00
9141;BME280;46330;50.822;7.126;2023-01-31T05:55:09;101771.91;;;1.19;100.00
9141;BME280;46330;50.822;7.126;2023-01-31T05:57:37;101773.84;;;1.25;100.00
9141;BME280;46330;50.822;7.126;2023-01-31T06:00:06;101778.19;;;1.26;100.00
9141;BME280;46330;50.822;7.126;2023-01-31T06:02:37;101777.41;;;1.28;100.00
9141;BME280;46330;50.822;7.126;2023-01-31T06:05:05;101776.69;;;1.32;100.00
9141;BME280;46330;50.822;7.126;2023-01-31T06:07:33;101771.72;;;1.37;100.00
9141;BME280;46330;50.822;7.126;2023-01-31T06:10:03;101770.19;;;1.42;100.00
9141;BME280;46330;50.822;7.126;2023-01-31T06:12:32;101760.91;;;1.47;100.00
9141;BME280;46330;50.822;7.126;2023-01-31T06:15:00;101764.47;;;1.50;100.00
9141;BME280;46330;50.822;7.126;2023-01-31T06:17:28;101768.94;;;1.56;100.00
9141;BME280;46330;50.822;7.126;2023-01-31T06:19:57;101770.13;;;1.64;100.00
9141;BME280;46330;50.822;7.126;2023-01-31T06:22:25;101762.53;;;1.69;100.00
9141;BME280;46330;50.822;7.126;2023-01-31T06:24:52;101773.16;;;1.78;100.00
9141;BME280;46330;50.822;7.126;2023-01-31T06:27:21;101763.03;;;1.84;100.00
9141;BME280;46330;50.822;7.126;2023-01-31T06:29:49;101758.06;;;1.88;100.00
9141;BME280;46330;50.822;7.126;2023-01-31T06:32:17;101753.88;;;1.92;100.00
9141;BME280;46330;50.822;7.126;2023-01-31T06:34:45;101747.84;;;1.91;100.00
9141;BME280;46330;50.822;7.126;2023-01-31T06:37:13;101744.28;;;1.88;100.00
9141;BME280;46330;50.822;7.126;2023-01-31T06:39:41;101742.75;;;1.93;100.00
9141;BME280;46330;50.822;7.126;2023-01-31T06:42:08;101743.78;;;1.99;100.00
9141;BME280;46330;50.822;7.126;2023-01-31T06:44:38;101737.00;;;2.01;100.00
9141;BME280;46330;50.822;7.126;2023-01-31T06:47:05;101733.81;;;2.08;100.00
9141;BME280;46330;50.822;7.126;2023-01-31T06:49:33;101727.06;;;2.13;100.00
9141;BME280;46330;50.822;7.126;2023-01-31T06:52:01;101730.00;;;2.24;100.00
9141;BME280;46330;50.822;7.126;2023-01-31T06:54:29;101725.06;;;2.32;100.00
9141;BME280;46330;50.822;7.126;2023-01-31T06:56:57;101734.63;;;2.34;100.00
9141;BME280;46330;50.822;7.126;2023-01-31T06:59:25;101732.09;;;2.36;100.00
9141;BME280;46330;50.822;7.126;2023-01-31T07:01:54;101739.25;;;2.44;100.00
9141;BME280;46330;50.822;7.126;2023-01-31T07:04:22;101747.16;;;2.49;100.00
9141;BME280;46330;50.822;7.126;2023-01-31T07:06:50;101747.25;;;2.52;100.00
9141;BME280;46330;50.822;7.126;2023-01-31T07:09:19;101754.22;;;2.56;100.00
9141;BME280;46330;50.822;7.126;2023-01-31T07:11:47;101753.41;;;2.57;100.00
9141;BME280;46330;50.822;7.126;2023-01-31T07:14:15;101755.19;;;2.59;100.00
9141;BME280;46330;50.822;7.126;2023-01-31T07:16:43;101752.72;;;2.62;100.00
9141;BME280;46330;50.822;7.126;2023-01-31T07:19:12;101753.78;;;2.69;100.00
9141;BME280;46330;50.822;7.126;2023-01-31T07:21:40;101750.47;;;2.73;100.00
9141;BME280;46330;50.822;7.126;2023-01-31T07:24:08;101748.09;;;2.81;100.00
9141;BME280;46330;50.822;7.126;2023-01-31T07:26:36;101755.19;;;2.86;100.00
9141;BME280;46330;50.822;7.126;2023-01-31T07:29:04;101759.59;;;2.90;100.00
9141;BME280;46330;50.822;7.126;2023-01-31T07:31:32;101757.19;;;2.96;99.70
9141;BME280;46330;50.822;7.126;2023-01-31T07:34:00;101754.69;;;2.99;99.23
9141;BME280;46330;50.822;7.126;2023-01-31T07:36:29;101746.19;;;3.03;98.91
9141;BME280;46330;50.822;7.126;2023-01-31T07:38:58;101760.91;;;3.06;98.70
9141;BME280;46330;50.822;7.126;2023-01-31T07:41:27;101767.09;;;3.11;98.31
9141;BME280;46330;50.822;7.126;2023-01-31T07:43:57;101775.88;;;3.16;98.08
9141;BME280;46330;50.822;7.126;2023-01-31T07:46:24;101763.09;;;3.22;98.08
9141;BME280;46330;50.822;7.126;2023-01-31T07:48:52;101762.31;;;3.24;98.25
9141;BME280;46330;50.822;7.126;2023-01-31T07:51:21;101765.88;;;3.28;98.25
9141;BME280;46330;50.822;7.126;2023-01-31T07:53:50;101744.47;;;3.34;97.97
9141;BME280;46330;50.822;7.126;2023-01-31T07:56:20;101743.66;;;3.35;97.31
9141;BME280;46330;50.822;7.126;2023-01-31T07:58:49;101737.72;;;3.39;97.55
9141;BME280;46330;50.822;7.126;2023-01-31T08:01:19;101726.53;;;3.40;97.04
9141;BME280;46330;50.822;7.126;2023-01-31T08:04:06;101721.50;;;3.44;97.08
9141;BME280;46330;50.822;7.126;2023-01-31T08:06:47;101727.81;;;3.54;96.85
9141;BME280;46330;50.822;7.126;2023-01-31T08:09:17;101715.06;;;3.61;95.79
9141;BME280;46330;50.822;7.126;2023-01-31T08:11:45;101707.50;;;3.69;95.67
9141;BME280;46330;50.822;7.126;2023-01-31T08:14:13;101705.94;;;3.75;95.00
9141;BME280;46330;50.822;7.126;2023-01-31T08:16:41;101711.28;;;3.82;94.48
9141;BME280;46330;50.822;7.126;2023-01-31T08:19:09;101708.97;;;3.92;93.49
9141;BME280;46330;50.822;7.126;2023-01-31T08:21:37;101708.31;;;4.01;92.39
9141;BME280;46330;50.822;7.126;2023-01-31T08:24:05;101715.41;;;4.08;92.01
9141;BME280;46330;50.822;7.126;2023-01-31T08:26:34;101735.31;;;4.10;92.64
9141;BME280;46330;50.822;7.126;2023-01-31T08:29:02;101728.56;;;4.17;92.24
9141;BME280;46330;50.822;7.126;2023-01-31T08:31:30;101730.28;;;4.18;91.81
9141;BME280;46330;50.822;7.126;2023-01-31T08:33:59;101734.78;;;4.25;91.80
9141;BME280;46330;50.822;7.126;2023-01-31T08:36:28;101730.56;;;4.28;91.30
9141;BME280;46330;50.822;7.126;2023-01-31T08:38:58;101734.16;;;4.35;91.24
9141;BME280;46330;50.822;7.126;2023-01-31T08:41:27;101727.28;;;4.36;90.92
9141;BME280;46330;50.822;7.126;2023-01-31T08:43:57;101722.31;;;4.45;90.57
9141;BME280;46330;50.822;7.126;2023-01-31T08:46:29;101713.72;;;4.47;90.45
9141;BME280;46330;50.822;7.126;2023-01-31T08:48:58;101716.47;;;4.53;89.58
9141;BME280;46330;50.822;7.126;2023-01-31T08:51:27;101728.66;;;4.57;90.62
9141;BME280;46330;50.822;7.126;2023-01-31T08:53:55;101716.47;;;4.53;89.55
9141;BME280;46330;50.822;7.126;2023-01-31T08:56:23;101712.09;;;4.52;89.15
9141;BME280;46330;50.822;7.126;2023-01-31T08:58:53;101719.94;;;4.55;89.29
9141;BME280;46330;50.822;7.126;2023-01-31T09:01:22;101725.25;;;4.61;89.10
9141;BME280;46330;50.822;7.126;2023-01-31T09:03:50;101715.09;;;4.70;88.47
9141;BME280;46330;50.822;7.126;2023-01-31T09:06:23;101719.44;;;4.70;88.82
9141;BME280;46330;50.822;7.126;2023-01-31T09:08:54;101722.03;;;4.70;88.42
9141;BME280;46330;50.822;7.126;2023-01-31T09:11:22;101725.53;;;4.73;88.44
9141;BME280;46330;50.822;7.126;2023-01-31T09:13:49;101726.38;;;4.72;87.73
9141;BME280;46330;50.822;7.126;2023-01-31T09:16:18;101711.66;;;4.71;87.62
9141;BME280;46330;50.822;7.126;2023-01-31T09:18:48;101715.34;;;4.81;87.30
9141;BME280;46330;50.822;7.126;2023-01-31T09:21:19;101705.94;;;4.86;87.76
9141;BME280;46330;50.822;7.126;2023-01-31T09:23:47;101703.34;;;4.86;87.49
9141;BME280;46330;50.822;7.126;2023-01-31T09:26:16;101699.91;;;4.87;87.02
9141;BME280;46330;50.822;7.126;2023-01-31T09:28:44;101705.16;;;4.90;86.86
9141;BME280;46330;50.822;7.126;2023-01-31T09:31:13;101693.03;;;4.89;87.31
9141;BME280;46330;50.822;7.126;2023-01-31T09:33:42;101695.56;;;4.86;87.20
9141;BME280;46330;50.822;7.126;2023-01-31T09:36:13;101681.00;;;4.93;87.51
9141;BME280;46330;50.822;7.126;2023-01-31T09:38:42;101685.31;;;4.91;86.79
9141;BME280;46330;50.822;7.126;2023-01-31T09:41:17;101684.53;;;4.96;86.74
9141;BME280;46330;50.822;7.126;2023-01-31T09:43:47;101673.41;;;5.00;86.99
9141;BME280;46330;50.822;7.126;2023-01-31T09:46:19;101669.22;;;5.07;87.67
9141;BME280;46330;50.822;7.126;2023-01-31T09:48:50;101664.09;;;5.10;86.96
9141;BME280;46330;50.822;7.126;2023-01-31T09:51:21;101664.09;;;5.11;86.90
9141;BME280;46330;50.822;7.126;2023-01-31T09:53:50;101672.03;;;5.19;87.37
9141;BME280;46330;50.822;7.126;2023-01-31T09:56:23;101672.94;;;5.21;87.70
9141;BME280;46330;50.822;7.126;2023-01-31T09:58:58;101665.25;;;5.25;87.64
9141;BME280;46330;50.822;7.126;2023-01-31T10:01:35;101661.78;;;5.25;88.75
9141;BME280;46330;50.822;7.126;2023-01-31T10:04:19;101665.28;;;5.27;88.92
9141;BME280;46330;50.822;7.126;2023-01-31T10:06:55;101662.78;;;5.33;89.02
9141;BME280;46330;50.822;7.126;2023-01-31T10:09:29;101655.13;;;5.39;88.63
9141;BME280;46330;50.822;7.126;2023-01-31T10:12:08;101650.75;;;5.36;88.15
9141;BME280;46330;50.822;7.126;2023-01-31T10:14:42;101644.09;;;5.51;87.55
9141;BME280;46330;50.822;7.126;2023-01-31T10:17:16;101645.03;;;5.56;87.80
9141;BME280;46330;50.822;7.126;2023-01-31T10:19:51;101641.72;;;5.63;88.55
9141;BME280;46330;50.822;7.126;2023-01-31T10:22:27;101650.28;;;5.59;88.44
9141;BME280;46330;50.822;7.126;2023-01-31T10:25:05;101647.72;;;5.60;89.13
9141;BME280;46330;50.822;7.126;2023-01-31T10:27:42;101633.00;;;5.59;88.79
9141;BME280;46330;50.822;7.126;2023-01-31T10:30:13;101626.25;;;5.70;89.13
9141;BME280;46330;50.822;7.126;2023-01-31T10:32:44;101626.19;;;5.67;87.76
9141;BME280;46330;50.822;7.126;2023-01-31T10:35:18;101622.84;;;5.73;87.53
9141;BME280;46330;50.822;7.126;2023-01-31T10:37:53;101634.13;;;5.75;87.03
9141;BME280;46330;50.822;7.126;2023-01-31T10:40:27;101627.31;;;5.83;87.78
9141;BME280;46330;50.822;7.126;2023-01-31T10:43:02;101625.56;;;5.80;87.20
9141;BME280;46330;50.822;7.126;2023-01-31T10:45:31;101620.47;;;5.85;86.29
9141;BME280;46330;50.822;7.126;2023-01-31T10:48:12;101615.38;;;5.91;86.55
9141;BME280;46330;50.822;7.126;2023-01-31T10:50:50;101612.00;;;5.97;86.64
9141;BME280;46330;50.822;7.126;2023-01-31T10:53:42;101609.47;;;6.01;87.47
9141;BME280;46330;50.822;7.126;2023-01-31T10:56:20;101597.34;;;6.00;88.83
9141;BME280;46330;50.822;7.126;2023-01-31T10:58:54;101595.53;;;5.94;89.41
9141;BME280;46330;50.822;7.126;2023-01-31T11:01:23;101590.41;;;5.99;89.85
9141;BME280;46330;50.822;7.126;2023-01-31T11:03:52;101593.03;;;6.01;91.36
9141;BME280;46330;50.822;7.126;2023-01-31T11:06:21;101583.31;;;5.87;91.54
9141;BME280;46330;50.822;7.126;2023-01-31T11:08:55;101567.63;;;5.83;92.68
9141;BME280;46330;50.822;7.126;2023-01-31T11:11:25;101572.84;;;5.84;91.23
9141;BME280;46330;50.822;7.126;2023-01-31T11:13:56;101567.78;;;5.92;92.43
9141;BME280;46330;50.822;7.126;2023-01-31T11:16:26;101543.63;;;5.96;91.77
9141;BME280;46330;50.822;7.126;2023-01-31T11:18:57;101531.63;;;6.07;91.99
9141;BME280;46330;50.822;7.126;2023-01-31T11:21:27;101542.97;;;6.12;90.52
9141;BME280;46330;50.822;7.126;2023-01-31T11:24:01;101527.47;;;6.20;91.31
9141;BME280;46330;50.822;7.126;2023-01-31T11:26:32;101521.38;;;6.15;91.32
9141;BME280;46330;50.822;7.126;2023-01-31T11:29:01;101502.28;;;6.11;91.46
9141;BME280;46330;50.822;7.126;2023-01-31T11:31:39;101509.78;;;5.90;90.83
9141;BME280;46330;50.822;7.126;2023-01-31T11:34:17;101494.13;;;5.85;93.60
9141;BME280;46330;50.822;7.126;2023-01-31T11:36:46;101482.00;;;5.84;94.70
9141;BME280;46330;50.822;7.126;2023-01-31T11:39:24;101496.81;;;5.90;95.12
9141;BME280;46330;50.822;7.126;2023-01-31T11:41:53;101484.66;;;5.89;94.34
9141;BME280;46330;50.822;7.126;2023-01-31T11:44:22;101478.78;;;6.02;94.38
9141;BME280;46330;50.822;7.126;2023-01-31T11:46:53;101486.75;;;6.16;94.74
9141;BME280;46330;50.822;7.126;2023-01-31T11:49:30;101477.28;;;6.21;93.35
9141;BME280;46330;50.822;7.126;2023-01-31T11:52:01;101478.22;;;6.27;92.02
9141;BME280;46330;50.822;7.126;2023-01-31T11:54:33;101468.97;;;6.52;91.81
9141;BME280;46330;50.822;7.126;2023-01-31T11:57:01;101469.78;;;6.46;89.70
9141;BME280;46330;50.822;7.126;2023-01-31T11:59:40;101458.66;;;6.57;90.08
9141;BME280;46330;50.822;7.126;2023-01-31T12:02:23;101468.22;;;6.64;89.24
9141;BME280;46330;50.822;7.126;2023-01-31T12:04:53;101461.25;;;6.58;89.07
9141;BME280;46330;50.822;7.126;2023-01-31T12:07:23;101450.91;;;6.63;89.48
9141;BME280;46330;50.822;7.126;2023-01-31T12:09:53;101453.50;;;6.64;87.75
9141;BME280;46330;50.822;7.126;2023-01-31T12:12:25;101440.56;;;6.69;87.98
9141;BME280;46330;50.822;7.126;2023-01-31T12:14:59;101444.84;;;6.67;87.43
9141;BME280;46330;50.822;7.126;2023-01-31T12:17:29;101441.28;;;6.56;86.80
9141;BME280;46330;50.822;7.126;2023-01-31T12:20:09;101441.31;;;6.60;87.61
9141;BME280;46330;50.822;7.126;2023-01-31T12:22:59;101443.94;;;6.63;86.54
9141;BME280;46330;50.822;7.126;2023-01-31T12:25:33;101430.94;;;6.59;87.75
9141;BME280;46330;50.822;7.126;2023-01-31T12:28:18;101434.38;;;6.56;86.04
9141;BME280;46330;50.822;7.126;2023-01-31T12:30:59;101428.31;;;6.57;87.04
9141;BME280;46330;50.822;7.126;2023-01-31T12:33:39;101420.56;;;6.62;86.00
9141;BME280;46330;50.822;7.126;2023-01-31T12:36:27;101431.88;;;6.68;87.41
9141;BME280;46330;50.822;7.126;2023-01-31T12:39:13;101434.47;;;6.67;86.58
9141;BME280;46330;50.822;7.126;2023-01-31T12:41:51;101430.94;;;6.63;86.76
9141;BME280;46330;50.822;7.126;2023-01-31T12:44:35;101436.16;;;6.62;87.25
9141;BME280;46330;50.822;7.126;2023-01-31T12:47:21;101440.47;;;6.61;87.34
9141;BME280;46330;50.822;7.126;2023-01-31T12:50:09;101436.97;;;6.58;87.02
9141;BME280;46330;50.822;7.126;2023-01-31T12:52:42;101443.94;;;6.60;87.57
9141;BME280;46330;50.822;7.126;2023-01-31T12:55:22;101439.59;;;6.61;88.20
9141;BME280;46330;50.822;7.126;2023-01-31T12:58:04;101436.97;;;6.58;88.71
9141;BME280;46330;50.822;7.126;2023-01-31T13:00:40;101435.25;;;6.58;88.41
9141;BME280;46330;50.822;7.126;2023-01-31T13:03:24;101431.81;;;6.61;89.28
9141;BME280;46330;50.822;7.126;2023-01-31T13:06:00;101432.69;;;6.61;88.81
9141;BME280;46330;50.822;7.126;2023-01-31T13:08:32;101430.91;;;6.57;89.35
9141;BME280;46330;50.822;7.126;2023-01-31T13:11:04;101432.69;;;6.60;89.97
9141;BME280;46330;50.822;7.126;2023-01-31T13:13:42;101417.09;;;6.60;90.12
9141;BME280;46330;50.822;7.126;2023-01-31T13:16:16;101414.47;;;6.61;90.38
9141;BME280;46330;50.822;7.126;2023-01-31T13:18:48;101402.44;;;6.66;90.35
9141;BME280;46330;50.822;7.126;2023-01-31T13:21:21;101406.78;;;6.69;89.95
9141;BME280;46330;50.822;7.126;2023-01-31T13:23:55;101406.75;;;6.66;90.07
9141;BME280;46330;50.822;7.126;2023-01-31T13:26:28;101411.97;;;6.70;89.91
9141;BME280;46330;50.822;7.126;2023-01-31T13:29:03;101417.94;;;6.60;89.97
9141;BME280;46330;50.822;7.126;2023-01-31T13:31:36;101405.88;;;6.67;90.69
9141;BME280;46330;50.822;7.126;2023-01-31T13:34:14;101417.16;;;6.66;90.28
9141;BME280;46330;50.822;7.126;2023-01-31T13:36:47;101418.84;;;6.64;91.20
9141;BME280;46330;50.822;7.126;2023-01-31T13:39:20;101419.78;;;6.69;90.87